Time;durP1;ratioP1;P1;durP2;ratioP2;P2;SDS_P1;SDS_P2;PMS_P1;PMS_P2;Temp;Humidity;BMP_temperature;BMP_pressure;BME280_temperature;BME280_humidity;BME280_pressure;Samples;Min_cycle;Max_cycle;Signal;HPM_P1;HPM_P2
2023/05/23 00:14:25;;;;;;;29.77;14.63;;;;;;;;;;4972736;28;25076;-77
2023/05/23 00:16:51;;;;;;;39.92;15.30;;;;;;;;;;4971430;28;25092;-76
2023/05/23 00:19:17;;;;;;;33.85;14.13;;;;;;;;;;4970274;28;25102;-77
2023/05/23 00:21:49;;;;;;;37.42;15.50;;;;;;;;;;4975185;28;25065;-80
2023/05/23 00:24:17;;;;;;;37.75;13.55;;;;;;;;;;4957526;28;25104;-76
2023/05/23 00:26:44;;;;;;;41.88;17.55;;;;;;;;;;4968417;28;25068;-76
2023/05/23 00:29:15;;;;;;;33.78;13.95;;;;;;;;;;4966741;28;25167;-78
2023/05/23 00:31:45;;;;;;;33.13;14.02;;;;;;;;;;4970790;28;25066;-77
2023/05/23 00:34:12;;;;;;;34.25;12.80;;;;;;;;;;4970985;28;25056;-77
2023/05/23 00:36:40;;;;;;;32.03;14.77;;;;;;;;;;4973404;28;25056;-76
2023/05/23 00:39:06;;;;;;;25.55;12.60;;;;;;;;;;4968881;28;25060;-77
2023/05/23 00:41:32;;;;;;;27.95;12.85;;;;;;;;;;4972043;28;25067;-75
2023/05/23 00:43:58;;;;;;;25.52;11.52;;;;;;;;;;4969800;28;25076;-76
2023/05/23 00:46:25;;;;;;;22.02;10.18;;;;;;;;;;4969624;28;25072;-77
2023/05/23 00:48:51;;;;;;;18.85;8.52;;;;;;;;;;4974224;28;25081;-76
2023/05/23 00:51:17;;;;;;;20.63;9.73;;;;;;;;;;4972077;28;25069;-75
2023/05/23 00:53:44;;;;;;;27.42;10.57;;;;;;;;;;4969326;28;25092;-76
2023/05/23 00:56:11;;;;;;;23.25;10.45;;;;;;;;;;4968642;28;25084;-75
2023/05/23 00:58:37;;;;;;;26.15;10.25;;;;;;;;;;4968142;28;25078;-77
2023/05/23 01:01:03;;;;;;;19.23;10.48;;;;;;;;;;4968975;28;25072;-76
2023/05/23 01:03:29;;;;;;;14.95;8.60;;;;;;;;;;4967310;28;25150;-76
2023/05/23 01:05:55;;;;;;;18.85;9.05;;;;;;;;;;4966923;28;25075;-77
2023/05/23 01:08:21;;;;;;;21.52;9.07;;;;;;;;;;4970145;28;25182;-78
2023/05/23 01:10:48;;;;;;;17.00;8.23;;;;;;;;;;4968099;28;25079;-76
2023/05/23 01:13:21;;;;;;;18.23;8.57;;;;;;;;;;4968477;28;25067;-75
2023/05/23 01:15:51;;;;;;;24.75;8.32;;;;;;;;;;4967717;28;25157;-79
2023/05/23 01:18:18;;;;;;;18.98;8.15;;;;;;;;;;4973412;28;25077;-75
2023/05/23 01:20:53;;;;;;;22.85;8.75;;;;;;;;;;4969395;28;25061;-76
2023/05/23 01:23:19;;;;;;;26.00;9.35;;;;;;;;;;4968928;28;25085;-77
2023/05/23 01:25:49;;;;;;;21.92;9.30;;;;;;;;;;4969123;28;25165;-77
2023/05/23 01:28:17;;;;;;;19.10;9.07;;;;;;;;;;4967438;28;24765;-77
2023/05/23 01:30:44;;;;;;;27.25;9.32;;;;;;;;;;4970627;28;25092;-76
2023/05/23 01:33:11;;;;;;;19.55;8.52;;;;;;;;;;4965346;28;25122;-77
2023/05/23 01:35:37;;;;;;;18.73;9.05;;;;;;;;;;4970130;28;25079;-75
2023/05/23 01:38:03;;;;;;;31.52;11.55;;;;;;;;;;4982909;28;25067;-76
2023/05/23 01:40:29;;;;;;;25.95;11.43;;;;;;;;;;4982359;28;25110;-77
2023/05/23 01:42:56;;;;;;;27.77;10.43;;;;;;;;;;4979889;28;25048;-76
2023/05/23 01:45:23;;;;;;;26.35;11.48;;;;;;;;;;4974696;28;25068;-76
2023/05/23 01:47:50;;;;;;;26.63;11.68;;;;;;;;;;4973205;28;25072;-76
2023/05/23 01:50:16;;;;;;;23.85;11.05;;;;;;;;;;4980942;28;25074;-76
2023/05/23 01:52:42;;;;;;;27.23;11.73;;;;;;;;;;4981255;28;25094;-74
2023/05/23 01:55:08;;;;;;;23.52;12.57;;;;;;;;;;4984099;28;25052;-73
2023/05/23 01:57:35;;;;;;;29.60;12.45;;;;;;;;;;4984656;28;25077;-75
2023/05/23 02:00:01;;;;;;;35.03;12.93;;;;;;;;;;4980441;28;25070;-73
2023/05/23 02:02:27;;;;;;;28.08;11.85;;;;;;;;;;4980297;28;25072;-78
2023/05/23 02:04:53;;;;;;;24.90;11.70;;;;;;;;;;4975411;28;25130;-76
2023/05/23 02:07:22;;;;;;;26.40;10.98;;;;;;;;;;4965522;28;25079;-79
2023/05/23 02:09:48;;;;;;;27.25;11.57;;;;;;;;;;4965837;28;25139;-77
2023/05/23 02:12:14;;;;;;;36.80;12.48;;;;;;;;;;4966375;28;25160;-73
2023/05/23 02:14:41;;;;;;;27.90;10.18;;;;;;;;;;4971450;28;25047;-77
2023/05/23 02:17:10;;;;;;;25.83;10.57;;;;;;;;;;4970795;28;25061;-76
2023/05/23 02:19:36;;;;;;;26.20;12.15;;;;;;;;;;4970207;28;25057;-78
2023/05/23 02:22:02;;;;;;;26.65;9.27;;;;;;;;;;4969042;28;25062;-76
2023/05/23 02:24:29;;;;;;;22.40;9.57;;;;;;;;;;4965863;28;25053;-77
2023/05/23 02:26:55;;;;;;;21.50;9.45;;;;;;;;;;4965400;28;25166;-76
2023/05/23 02:29:21;;;;;;;19.38;9.43;;;;;;;;;;4969483;28;25052;-75
2023/05/23 02:31:47;;;;;;;29.52;9.10;;;;;;;;;;4976993;28;25098;-75
2023/05/23 02:34:13;;;;;;;22.85;8.85;;;;;;;;;;4981126;28;25054;-77
2023/05/23 02:36:39;;;;;;;22.65;9.95;;;;;;;;;;4977187;28;25101;-77
2023/05/23 02:39:05;;;;;;;22.08;8.35;;;;;;;;;;4967401;28;25051;-76
2023/05/23 02:41:31;;;;;;;22.60;8.80;;;;;;;;;;4971226;28;25066;-77
2023/05/23 02:43:58;;;;;;;31.15;10.05;;;;;;;;;;4974402;28;26169;-77
2023/05/23 02:46:24;;;;;;;23.73;7.88;;;;;;;;;;4971548;28;25087;-77
2023/05/23 02:48:50;;;;;;;24.88;8.30;;;;;;;;;;4968812;28;25075;-76
2023/05/23 02:51:16;;;;;;;23.88;8.00;;;;;;;;;;4972520;28;25070;-77
2023/05/23 02:53:42;;;;;;;25.23;8.48;;;;;;;;;;4973328;28;25066;-76
2023/05/23 02:56:09;;;;;;;28.42;8.07;;;;;;;;;;4983598;28;25059;-77
2023/05/23 02:58:35;;;;;;;26.65;7.72;;;;;;;;;;4978539;28;25103;-76
2023/05/23 03:01:02;;;;;;;20.60;8.07;;;;;;;;;;4978248;28;25087;-75
2023/05/23 03:03:29;;;;;;;22.38;8.43;;;;;;;;;;4978599;28;25070;-79
2023/05/23 03:05:55;;;;;;;21.17;8.95;;;;;;;;;;4973022;28;25060;-75
2023/05/23 03:08:21;;;;;;;22.85;7.97;;;;;;;;;;4973210;28;25072;-77
2023/05/23 03:10:47;;;;;;;30.27;8.48;;;;;;;;;;4980889;28;25085;-80
2023/05/23 03:13:13;;;;;;;22.75;8.57;;;;;;;;;;4978663;28;25100;-73
2023/05/23 03:15:39;;;;;;;26.45;8.88;;;;;;;;;;4981473;28;25057;-75
2023/05/23 03:18:05;;;;;;;23.63;7.97;;;;;;;;;;4979253;28;25096;-78
2023/05/23 03:20:31;;;;;;;26.52;8.23;;;;;;;;;;4974812;28;25070;-77
2023/05/23 03:22:57;;;;;;;40.15;10.10;;;;;;;;;;4971059;28;25055;-76
2023/05/23 03:25:23;;;;;;;25.70;10.20;;;;;;;;;;4972127;28;25065;-75
2023/05/23 03:27:49;;;;;;;22.48;7.13;;;;;;;;;;4965961;28;25081;-74
2023/05/23 03:30:15;;;;;;;22.35;8.25;;;;;;;;;;4969103;28;25060;-76
2023/05/23 03:32:41;;;;;;;26.60;7.47;;;;;;;;;;4966505;28;25140;-72
2023/05/23 03:35:07;;;;;;;24.67;7.78;;;;;;;;;;4968536;28;25112;-76
2023/05/23 03:37:33;;;;;;;19.25;7.80;;;;;;;;;;4967411;28;25066;-77
2023/05/23 03:39:59;;;;;;;23.13;6.90;;;;;;;;;;4967433;28;25149;-75
2023/05/23 03:42:25;;;;;;;23.25;7.35;;;;;;;;;;4968388;28;25060;-78
2023/05/23 03:44:51;;;;;;;20.10;6.07;;;;;;;;;;4969807;28;25165;-75
2023/05/23 03:47:17;;;;;;;22.33;7.20;;;;;;;;;;4970872;28;25063;-75
2023/05/23 03:49:44;;;;;;;25.52;6.00;;;;;;;;;;4971952;28;25139;-76
2023/05/23 03:52:10;;;;;;;25.63;6.28;;;;;;;;;;4968416;28;25078;-77
2023/05/23 03:54:36;;;;;;;18.48;4.97;;;;;;;;;;4970570;28;25054;-75
2023/05/23 03:57:02;;;;;;;16.27;5.30;;;;;;;;;;4970039;28;25145;-73
2023/05/23 03:59:28;;;;;;;19.13;6.75;;;;;;;;;;4967491;28;25071;-75
2023/05/23 04:01:57;;;;;;;17.85;5.90;;;;;;;;;;4972498;28;25077;-75
2023/05/23 04:04:23;;;;;;;19.85;7.95;;;;;;;;;;4967751;28;25058;-75
2023/05/23 04:06:50;;;;;;;26.25;7.00;;;;;;;;;;4979168;28;25067;-74
2023/05/23 04:09:16;;;;;;;18.83;6.43;;;;;;;;;;4970268;28;25060;-72
2023/05/23 04:11:43;;;;;;;12.57;5.55;;;;;;;;;;4969565;28;25056;-73
2023/05/23 04:14:09;;;;;;;14.93;5.30;;;;;;;;;;4965856;28;25076;-74
2023/05/23 04:16:36;;;;;;;11.10;5.80;;;;;;;;;;4969617;28;25063;-74
2023/05/23 04:19:06;;;;;;;13.70;5.97;;;;;;;;;;4965996;28;25074;-77
2023/05/23 04:21:32;;;;;;;12.25;5.55;;;;;;;;;;4967380;28;25115;-73
2023/05/23 04:23:58;;;;;;;20.58;8.27;;;;;;;;;;4966074;28;25073;-76
2023/05/23 04:26:24;;;;;;;17.27;7.18;;;;;;;;;;4968507;28;25069;-73
2023/05/23 04:28:53;;;;;;;19.90;8.18;;;;;;;;;;4964818;28;25081;-73
2023/05/23 04:31:19;;;;;;;15.50;6.95;;;;;;;;;;4966597;28;25133;-74
2023/05/23 04:33:45;;;;;;;17.45;6.85;;;;;;;;;;4968461;28;25087;-75
2023/05/23 04:36:11;;;;;;;24.88;6.43;;;;;;;;;;4966737;28;25097;-76
2023/05/23 04:38:37;;;;;;;17.33;6.50;;;;;;;;;;4966792;28;25053;-78
2023/05/23 04:41:05;;;;;;;19.25;6.50;;;;;;;;;;4966270;28;25078;-76
2023/05/23 04:43:32;;;;;;;13.68;6.90;;;;;;;;;;4967191;28;25100;-78
2023/05/23 04:45:58;;;;;;;17.20;6.38;;;;;;;;;;4964956;28;25091;-74
2023/05/23 04:48:26;;;;;;;18.33;6.70;;;;;;;;;;4965501;28;25090;-76
2023/05/23 04:50:51;;;;;;;14.85;5.50;;;;;;;;;;4965335;28;25064;-76
2023/05/23 04:53:18;;;;;;;10.05;5.07;;;;;;;;;;4966237;28;25062;-72
2023/05/23 04:55:44;;;;;;;12.23;4.75;;;;;;;;;;4965803;28;25080;-74
2023/05/23 04:58:11;;;;;;;15.32;5.72;;;;;;;;;;4966175;28;25117;-77
2023/05/23 05:00:37;;;;;;;24.20;5.65;;;;;;;;;;4964947;28;25063;-75
2023/05/23 05:03:03;;;;;;;17.25;6.45;;;;;;;;;;4965399;28;25064;-74
2023/05/23 05:05:29;;;;;;;15.88;5.40;;;;;;;;;;4968798;28;25104;-72
2023/05/23 05:07:55;;;;;;;16.60;5.80;;;;;;;;;;4972148;28;25101;-74
2023/05/23 05:10:21;;;;;;;15.38;6.63;;;;;;;;;;4977292;28;25072;-74
2023/05/23 05:12:50;;;;;;;17.73;7.50;;;;;;;;;;4976160;28;25144;-76
2023/05/23 05:15:17;;;;;;;21.27;6.97;;;;;;;;;;4972313;28;25069;-73
2023/05/23 05:17:43;;;;;;;15.88;7.00;;;;;;;;;;4963274;28;25064;-75
2023/05/23 05:20:09;;;;;;;19.05;7.50;;;;;;;;;;4959861;28;25057;-75
2023/05/23 05:22:36;;;;;;;21.05;5.97;;;;;;;;;;4967190;28;25077;-75
2023/05/23 05:25:02;;;;;;;21.80;6.50;;;;;;;;;;4962157;28;25079;-74
2023/05/23 05:27:28;;;;;;;21.38;6.18;;;;;;;;;;4961105;28;25054;-73
2023/05/23 05:30:02;;;;;;;16.00;6.13;;;;;;;;;;4966914;28;25057;-72
2023/05/23 05:32:30;;;;;;;17.63;6.22;;;;;;;;;;4966198;28;25116;-73
2023/05/23 05:34:56;;;;;;;21.15;6.85;;;;;;;;;;4968631;28;25105;-71
2023/05/23 05:37:22;;;;;;;23.35;8.25;;;;;;;;;;4967853;28;25059;-76
2023/05/23 05:39:48;;;;;;;25.33;7.93;;;;;;;;;;4966120;28;25127;-75
2023/05/23 05:42:14;;;;;;;26.88;8.65;;;;;;;;;;4962404;28;25117;-76
2023/05/23 05:44:40;;;;;;;21.60;8.70;;;;;;;;;;4963508;28;25168;-76
2023/05/23 05:47:06;;;;;;;26.55;9.65;;;;;;;;;;4970279;28;25057;-74
2023/05/23 05:49:32;;;;;;;22.02;8.30;;;;;;;;;;4977544;28;25079;-75
2023/05/23 05:51:58;;;;;;;29.20;7.97;;;;;;;;;;4987937;28;25063;-76
2023/05/23 05:54:24;;;;;;;20.10;7.88;;;;;;;;;;4976281;28;25077;-73
2023/05/23 05:56:50;;;;;;;22.02;8.60;;;;;;;;;;4968387;28;25091;-74
2023/05/23 05:59:16;;;;;;;16.60;6.82;;;;;;;;;;4971965;28;25168;-75
2023/05/23 06:01:43;;;;;;;19.52;6.57;;;;;;;;;;4962713;28;25150;-72
2023/05/23 06:04:09;;;;;;;18.88;6.68;;;;;;;;;;4966150;28;25015;-74
2023/05/23 06:06:35;;;;;;;21.00;7.35;;;;;;;;;;4963591;28;25077;-75
2023/05/23 06:09:01;;;;;;;20.55;7.32;;;;;;;;;;4963548;28;25146;-77
2023/05/23 06:11:28;;;;;;;19.83;8.80;;;;;;;;;;4965248;28;25085;-75
2023/05/23 06:13:54;;;;;;;17.25;7.40;;;;;;;;;;4963649;28;25079;-74
2023/05/23 06:16:20;;;;;;;16.00;6.03;;;;;;;;;;4965320;28;25098;-77
2023/05/23 06:18:46;;;;;;;22.70;8.52;;;;;;;;;;4968655;28;25059;-75
2023/05/23 06:21:12;;;;;;;27.75;11.50;;;;;;;;;;4968236;28;25084;-74
2023/05/23 06:23:37;;;;;;;18.90;8.50;;;;;;;;;;4962103;28;25107;-74
2023/05/23 06:26:06;;;;;;;21.58;10.38;;;;;;;;;;4957261;28;25044;-75
2023/05/23 06:28:33;;;;;;;21.05;8.63;;;;;;;;;;4964802;28;25039;-74
2023/05/23 06:30:59;;;;;;;13.13;6.40;;;;;;;;;;4963276;28;25054;-77
2023/05/23 06:33:25;;;;;;;20.10;6.88;;;;;;;;;;4962541;28;25132;-76
2023/05/23 06:35:51;;;;;;;18.83;5.85;;;;;;;;;;4967318;28;25111;-75
2023/05/23 06:38:17;;;;;;;14.55;5.93;;;;;;;;;;4963524;28;25073;-76
2023/05/23 06:40:43;;;;;;;19.80;5.97;;;;;;;;;;4963310;28;25082;-74
2023/05/23 06:43:08;;;;;;;20.15;5.70;;;;;;;;;;4961585;28;25078;-77
2023/05/23 06:45:36;;;;;;;18.73;5.78;;;;;;;;;;4963794;28;25051;-75
2023/05/23 06:48:02;;;;;;;26.55;6.63;;;;;;;;;;4958676;28;25091;-78
2023/05/23 06:50:28;;;;;;;21.63;7.07;;;;;;;;;;4964422;28;25068;-76
2023/05/23 06:52:55;;;;;;;19.55;6.53;;;;;;;;;;4965595;28;25201;-75
2023/05/23 06:55:21;;;;;;;14.75;6.40;;;;;;;;;;4967167;28;25074;-75
2023/05/23 06:57:50;;;;;;;16.85;7.03;;;;;;;;;;4962155;28;25048;-76
2023/05/23 07:00:16;;;;;;;16.90;6.60;;;;;;;;;;4963793;28;25058;-77
2023/05/23 07:02:44;;;;;;;16.73;6.40;;;;;;;;;;4965573;28;25078;-75
2023/05/23 07:05:10;;;;;;;19.25;6.60;;;;;;;;;;4965152;28;25050;-75
2023/05/23 07:07:36;;;;;;;17.80;6.38;;;;;;;;;;4965842;28;25106;-76
2023/05/23 07:10:02;;;;;;;13.35;5.95;;;;;;;;;;4965226;28;25059;-75
2023/05/23 07:12:28;;;;;;;13.85;5.85;;;;;;;;;;4966053;28;25105;-73
2023/05/23 07:14:54;;;;;;;18.15;5.90;;;;;;;;;;4967579;28;25075;-74
2023/05/23 07:17:20;;;;;;;11.27;5.63;;;;;;;;;;4964808;28;25050;-75
2023/05/23 07:19:46;;;;;;;8.80;5.03;;;;;;;;;;4965281;28;25142;-75
2023/05/23 07:22:12;;;;;;;14.38;5.18;;;;;;;;;;4965078;28;26167;-75
2023/05/23 07:24:38;;;;;;;10.48;5.72;;;;;;;;;;4976074;28;25081;-75
2023/05/23 07:27:04;;;;;;;16.08;5.93;;;;;;;;;;4980949;28;25106;-75
2023/05/23 07:29:30;;;;;;;11.32;5.45;;;;;;;;;;4982857;28;25062;-76
2023/05/23 07:31:57;;;;;;;13.70;5.28;;;;;;;;;;4967261;28;25059;-77
2023/05/23 07:34:23;;;;;;;12.85;5.45;;;;;;;;;;4966541;28;25105;-75
2023/05/23 07:36:49;;;;;;;11.85;4.05;;;;;;;;;;4971998;28;25072;-77
2023/05/23 07:39:20;;;;;;;11.38;4.13;;;;;;;;;;4971621;28;25080;-76
2023/05/23 07:41:46;;;;;;;12.82;4.22;;;;;;;;;;4975998;28;25127;-76
2023/05/23 07:44:12;;;;;;;12.05;3.42;;;;;;;;;;4973565;28;25164;-75
2023/05/23 07:46:38;;;;;;;10.35;4.03;;;;;;;;;;4967551;28;25134;-74
2023/05/23 07:49:04;;;;;;;12.38;3.92;;;;;;;;;;4963314;28;25142;-75
2023/05/23 07:51:31;;;;;;;9.45;3.70;;;;;;;;;;4966349;28;25050;-76
2023/05/23 07:53:57;;;;;;;10.43;3.55;;;;;;;;;;4969043;28;25097;-76
2023/05/23 07:56:23;;;;;;;10.50;3.00;;;;;;;;;;4963831;28;25083;-77
2023/05/23 07:58:49;;;;;;;13.60;2.92;;;;;;;;;;4961678;28;25117;-75
2023/05/23 08:01:17;;;;;;;12.30;2.80;;;;;;;;;;4965897;28;25080;-75
2023/05/23 08:03:43;;;;;;;14.85;3.53;;;;;;;;;;4965046;28;25085;-77
2023/05/23 08:06:09;;;;;;;9.65;2.83;;;;;;;;;;4963476;28;25091;-74
2023/05/23 08:08:36;;;;;;;16.67;3.47;;;;;;;;;;4962827;28;25144;-77
2023/05/23 08:11:02;;;;;;;14.18;2.95;;;;;;;;;;4963209;28;25139;-74
2023/05/23 08:13:28;;;;;;;9.13;2.28;;;;;;;;;;4963186;28;25089;-75
2023/05/23 08:15:54;;;;;;;8.85;2.53;;;;;;;;;;4968964;28;25062;-74
2023/05/23 08:18:20;;;;;;;14.23;3.15;;;;;;;;;;4966813;28;25065;-79
2023/05/23 08:20:46;;;;;;;14.10;3.15;;;;;;;;;;4965903;28;25073;-77
2023/05/23 08:23:13;;;;;;;15.35;2.70;;;;;;;;;;4965094;28;25070;-76
2023/05/23 08:25:39;;;;;;;16.60;3.70;;;;;;;;;;4963477;28;25053;-76
2023/05/23 08:28:05;;;;;;;15.85;3.92;;;;;;;;;;4965614;28;25063;-75
2023/05/23 08:30:32;;;;;;;11.40;3.38;;;;;;;;;;4965921;28;25068;-76
2023/05/23 08:32:59;;;;;;;15.25;3.40;;;;;;;;;;4963786;28;25102;-75
2023/05/23 08:35:28;;;;;;;13.77;3.08;;;;;;;;;;4966281;28;25063;-74
2023/05/23 08:37:55;;;;;;;11.85;3.53;;;;;;;;;;4963011;28;25103;-77
2023/05/23 08:40:22;;;;;;;17.52;3.42;;;;;;;;;;4964714;28;25058;-74
2023/05/23 08:42:48;;;;;;;13.98;2.97;;;;;;;;;;4962381;28;25063;-73
2023/05/23 08:45:14;;;;;;;17.40;3.38;;;;;;;;;;4963559;28;25075;-76
2023/05/23 08:47:44;;;;;;;14.23;2.80;;;;;;;;;;4963869;28;25081;-75
2023/05/23 08:50:12;;;;;;;12.15;2.92;;;;;;;;;;4964015;28;25075;-73
2023/05/23 08:52:42;;;;;;;11.50;3.80;;;;;;;;;;4963106;28;25071;-76
2023/05/23 08:55:08;;;;;;;15.07;2.60;;;;;;;;;;4961235;28;25173;-75
2023/05/23 08:57:35;;;;;;;16.77;3.08;;;;;;;;;;4962666;28;25091;-75
2023/05/23 09:00:07;;;;;;;11.77;3.20;;;;;;;;;;4963116;28;25148;-75
2023/05/23 09:02:33;;;;;;;26.23;2.80;;;;;;;;;;4964825;28;25511;-77
2023/05/23 09:04:59;;;;;;;10.88;3.30;;;;;;;;;;4965497;28;25063;-76
2023/05/23 09:07:27;;;;;;;14.95;3.38;;;;;;;;;;4961819;28;25059;-73
2023/05/23 09:09:53;;;;;;;14.27;2.78;;;;;;;;;;4964684;28;25163;-74
2023/05/23 09:12:22;;;;;;;12.43;2.40;;;;;;;;;;4964886;28;25065;-74
2023/05/23 09:14:48;;;;;;;13.13;2.58;;;;;;;;;;4971172;28;25113;-73
2023/05/23 09:17:18;;;;;;;8.77;2.83;;;;;;;;;;4950786;28;25124;-75
2023/05/23 09:19:45;;;;;;;16.45;3.83;;;;;;;;;;4964967;28;25069;-77
2023/05/23 09:22:11;;;;;;;16.15;4.18;;;;;;;;;;4963143;28;25108;-75
2023/05/23 09:24:38;;;;;;;11.88;3.25;;;;;;;;;;4964760;28;25094;-75
2023/05/23 09:27:07;;;;;;;10.15;2.92;;;;;;;;;;4965098;28;25088;-74
2023/05/23 09:29:38;;;;;;;13.98;3.25;;;;;;;;;;4963855;28;25123;-74
2023/05/23 09:32:15;;;;;;;12.90;3.13;;;;;;;;;;4965867;28;25160;-76
2023/05/23 09:35:04;;;;;;;10.63;3.22;;;;;;;;;;4966189;28;25182;-75
2023/05/23 09:37:31;;;;;;;15.35;3.13;;;;;;;;;;4969858;28;25066;-78
2023/05/23 09:40:01;;;;;;;17.25;3.85;;;;;;;;;;4969516;28;25074;-77
2023/05/23 09:42:33;;;;;;;15.45;3.72;;;;;;;;;;4968041;28;25077;-75
2023/05/23 09:44:59;;;;;;;12.20;2.83;;;;;;;;;;4968003;28;25140;-74
2023/05/23 09:47:26;;;;;;;10.75;2.60;;;;;;;;;;4966045;28;25050;-75
2023/05/23 09:49:52;;;;;;;10.40;2.30;;;;;;;;;;4970150;28;25153;-77
2023/05/23 09:52:21;;;;;;;14.40;3.08;;;;;;;;;;4972096;28;24930;-76
2023/05/23 09:54:47;;;;;;;17.05;3.90;;;;;;;;;;4970845;28;25058;-76
2023/05/23 09:57:15;;;;;;;12.88;3.63;;;;;;;;;;4966009;28;25103;-74
2023/05/23 09:59:45;;;;;;;11.23;2.90;;;;;;;;;;4969456;28;25069;-77
2023/05/23 10:02:11;;;;;;;13.05;3.97;;;;;;;;;;4973086;28;25064;-75
2023/05/23 10:04:40;;;;;;;14.00;2.70;;;;;;;;;;4971525;28;25062;-74
2023/05/23 10:07:13;;;;;;;14.70;3.33;;;;;;;;;;4972497;28;25062;-75
2023/05/23 10:09:40;;;;;;;11.32;3.22;;;;;;;;;;4974938;28;25083;-74
2023/05/23 10:12:36;;;;;;;11.40;2.95;;;;;;;;;;4967468;28;25055;-75
2023/05/23 10:15:03;;;;;;;13.27;5.05;;;;;;;;;;4967451;28;25097;-77
2023/05/23 10:17:36;;;;;;;11.55;3.15;;;;;;;;;;4965157;28;25126;-76
2023/05/23 10:20:07;;;;;;;7.03;3.00;;;;;;;;;;4968652;28;25072;-77
2023/05/23 10:22:35;;;;;;;9.77;3.20;;;;;;;;;;4965547;28;25098;-77
2023/05/23 10:25:04;;;;;;;11.70;3.20;;;;;;;;;;4966767;28;25067;-76
2023/05/23 10:27:30;;;;;;;11.02;3.15;;;;;;;;;;4962111;28;25047;-76
2023/05/23 10:29:57;;;;;;;14.48;3.03;;;;;;;;;;4967482;28;25175;-78
2023/05/23 10:32:23;;;;;;;17.58;3.35;;;;;;;;;;4963830;28;25108;-76
2023/05/23 10:34:52;;;;;;;15.65;3.10;;;;;;;;;;4965659;28;25079;-75
2023/05/23 10:37:29;;;;;;;11.52;3.15;;;;;;;;;;4967364;28;25060;-76
2023/05/23 10:40:13;;;;;;;15.25;3.60;;;;;;;;;;4967873;28;25117;-76
2023/05/23 10:42:38;;;;;;;16.33;3.47;;;;;;;;;;4966242;28;25133;-77
2023/05/23 10:45:17;;;;;;;16.10;4.85;;;;;;;;;;4968812;28;25056;-76
2023/05/23 10:47:43;;;;;;;14.77;3.80;;;;;;;;;;4966911;28;25156;-76
2023/05/23 10:50:13;;;;;;;12.25;3.33;;;;;;;;;;4964869;28;25070;-75
2023/05/23 10:52:40;;;;;;;14.68;4.07;;;;;;;;;;4964010;28;25095;-71
2023/05/23 10:55:18;;;;;;;18.75;3.33;;;;;;;;;;4964632;28;25099;-74
2023/05/23 10:57:44;;;;;;;13.90;3.17;;;;;;;;;;4965109;28;25052;-76
2023/05/23 11:00:14;;;;;;;12.45;2.83;;;;;;;;;;4968292;28;25054;-75
2023/05/23 11:02:46;;;;;;;14.23;3.03;;;;;;;;;;4966098;28;25070;-77
2023/05/23 11:05:23;;;;;;;17.85;4.43;;;;;;;;;;4968304;28;25094;-74
2023/05/23 11:08:21;;;;;;;13.13;3.63;;;;;;;;;;4967375;28;25136;-76
2023/05/23 11:10:54;;;;;;;11.98;2.95;;;;;;;;;;4940728;28;25070;-74
2023/05/23 11:13:21;;;;;;;10.68;3.70;;;;;;;;;;4963132;28;25093;-75
2023/05/23 11:15:47;;;;;;;12.45;3.20;;;;;;;;;;4966471;28;25065;-76
2023/05/23 11:18:26;;;;;;;16.52;3.90;;;;;;;;;;4962411;28;25097;-75
2023/05/23 11:20:53;;;;;;;16.38;3.45;;;;;;;;;;4966448;28;25067;-76
2023/05/23 11:23:20;;;;;;;16.55;3.75;;;;;;;;;;4962014;28;25063;-76
2023/05/23 11:25:50;;;;;;;10.90;3.10;;;;;;;;;;4964127;28;25043;-76
2023/05/23 11:28:17;;;;;;;14.68;3.78;;;;;;;;;;4963435;28;25143;-74
2023/05/23 11:30:43;;;;;;;13.15;2.72;;;;;;;;;;4968868;28;25050;-73
2023/05/23 11:33:13;;;;;;;12.13;3.65;;;;;;;;;;4965248;28;25084;-73
2023/05/23 11:35:46;;;;;;;16.13;4.15;;;;;;;;;;4964729;28;25058;-76
2023/05/23 11:38:14;;;;;;;22.88;3.90;;;;;;;;;;4965810;28;25107;-75
2023/05/23 11:40:41;;;;;;;15.18;3.15;;;;;;;;;;4968202;28;25063;-75
2023/05/23 11:43:09;;;;;;;15.70;3.60;;;;;;;;;;4964339;28;25088;-76
2023/05/23 11:45:36;;;;;;;10.80;2.38;;;;;;;;;;4966664;28;25075;-75
2023/05/23 11:48:05;;;;;;;13.75;3.22;;;;;;;;;;4968168;28;25060;-75
2023/05/23 11:50:31;;;;;;;18.27;3.33;;;;;;;;;;4973286;28;25142;-77
2023/05/23 11:52:57;;;;;;;13.50;3.33;;;;;;;;;;4967329;28;25068;-73
2023/05/23 11:55:23;;;;;;;10.38;2.60;;;;;;;;;;4963861;28;25079;-77
2023/05/23 11:57:50;;;;;;;12.13;3.17;;;;;;;;;;4965750;28;25045;-76
2023/05/23 12:00:16;;;;;;;10.75;2.97;;;;;;;;;;4971544;28;25068;-76
2023/05/23 12:02:43;;;;;;;11.95;3.00;;;;;;;;;;4979392;28;25057;-75
2023/05/23 12:05:13;;;;;;;20.65;4.40;;;;;;;;;;4968771;28;25159;-75
2023/05/23 12:07:46;;;;;;;9.07;3.22;;;;;;;;;;4972644;28;25073;-75
2023/05/23 12:10:12;;;;;;;17.15;3.70;;;;;;;;;;4970938;28;25146;-76
2023/05/23 12:12:38;;;;;;;9.60;2.75;;;;;;;;;;4964053;28;25142;-76
2023/05/23 12:15:04;;;;;;;10.43;2.95;;;;;;;;;;4963888;28;25092;-78
2023/05/23 12:17:31;;;;;;;17.80;3.60;;;;;;;;;;4961188;28;25065;-75
2023/05/23 12:19:57;;;;;;;11.25;3.17;;;;;;;;;;4965396;28;25066;-75
2023/05/23 12:22:23;;;;;;;17.50;3.45;;;;;;;;;;4962172;28;25071;-75
2023/05/23 12:24:53;;;;;;;8.95;2.65;;;;;;;;;;4965148;28;25079;-77
2023/05/23 12:27:20;;;;;;;18.63;3.30;;;;;;;;;;4964185;28;25089;-76
2023/05/23 12:29:52;;;;;;;12.68;3.70;;;;;;;;;;4963958;28;25176;-75
2023/05/23 12:32:18;;;;;;;;;;;;;;;;;;4966485;28;25111;-74
2023/05/23 12:34:44;;;;;;;10.68;3.38;;;;;;;;;;4972032;28;24075;-76
2023/05/23 12:37:13;;;;;;;13.80;3.08;;;;;;;;;;4970347;28;25065;-77
2023/05/23 12:39:39;;;;;;;14.10;4.13;;;;;;;;;;4965603;28;25085;-75
2023/05/23 12:42:09;;;;;;;15.32;3.47;;;;;;;;;;4961599;28;25048;-76
2023/05/23 12:44:35;;;;;;;16.23;2.88;;;;;;;;;;4963701;28;25055;-76
2023/05/23 12:47:02;;;;;;;13.73;2.90;;;;;;;;;;4961675;28;25072;-77
2023/05/23 12:49:28;;;;;;;17.40;3.78;;;;;;;;;;4963179;28;25112;-78
2023/05/23 12:51:54;;;;;;;9.70;3.45;;;;;;;;;;4963704;28;25091;-78
2023/05/23 12:54:20;;;;;;;12.68;3.08;;;;;;;;;;4963003;28;25109;-77
2023/05/23 12:56:46;;;;;;;20.30;3.75;;;;;;;;;;4966572;28;25144;-77
2023/05/23 12:59:12;;;;;;;9.40;2.40;;;;;;;;;;4964748;28;25077;-75
2023/05/23 13:01:38;;;;;;;17.13;3.03;;;;;;;;;;4965700;28;25070;-77
2023/05/23 13:04:04;;;;;;;18.42;3.40;;;;;;;;;;4965608;28;25067;-76
2023/05/23 13:06:30;;;;;;;19.98;3.20;;;;;;;;;;4968234;28;25060;-78
2023/05/23 13:08:57;;;;;;;16.00;2.50;;;;;;;;;;4967321;28;25138;-76
2023/05/23 13:11:23;;;;;;;12.15;2.72;;;;;;;;;;4971216;28;25066;-76
2023/05/23 13:13:52;;;;;;;9.73;2.92;;;;;;;;;;4972372;28;25061;-76
2023/05/23 13:16:19;;;;;;;17.75;3.20;;;;;;;;;;4974203;28;25149;-75
2023/05/23 13:18:45;;;;;;;8.40;2.80;;;;;;;;;;4969435;28;25165;-72
2023/05/23 13:21:10;;;;;;;11.38;2.92;;;;;;;;;;4967091;28;25081;-74
2023/05/23 13:23:39;;;;;;;13.25;3.33;;;;;;;;;;4980382;28;25056;-77
2023/05/23 13:26:06;;;;;;;17.52;3.42;;;;;;;;;;4984156;28;25050;-76
2023/05/23 13:28:32;;;;;;;16.25;3.38;;;;;;;;;;4985467;28;25061;-76
2023/05/23 13:30:58;;;;;;;12.00;3.58;;;;;;;;;;4977149;28;25094;-78
2023/05/23 13:33:24;;;;;;;17.75;2.72;;;;;;;;;;4966181;28;25057;-76
2023/05/23 13:35:51;;;;;;;15.65;3.25;;;;;;;;;;4967253;28;25155;-76
2023/05/23 13:38:17;;;;;;;18.08;2.97;;;;;;;;;;4964396;28;25088;-78
2023/05/23 13:40:43;;;;;;;13.65;2.97;;;;;;;;;;4967122;28;25081;-78
2023/05/23 13:43:09;;;;;;;12.05;3.20;;;;;;;;;;4962098;28;25104;-77
2023/05/23 13:45:35;;;;;;;20.00;3.15;;;;;;;;;;4965452;28;25135;-77
2023/05/23 13:48:01;;;;;;;15.00;2.58;;;;;;;;;;4963681;28;25070;-74
2023/05/23 13:50:27;;;;;;;13.73;3.47;;;;;;;;;;4964283;28;25067;-76
2023/05/23 13:52:53;;;;;;;16.95;3.05;;;;;;;;;;4968839;28;25075;-78
2023/05/23 13:55:20;;;;;;;13.80;3.13;;;;;;;;;;4970584;28;25154;-75
2023/05/23 13:57:46;;;;;;;15.70;3.00;;;;;;;;;;4963346;28;25057;-78
2023/05/23 14:00:12;;;;;;;14.43;3.95;;;;;;;;;;4963936;28;25051;-77
2023/05/23 14:02:38;;;;;;;13.18;4.07;;;;;;;;;;4971214;28;25072;-75
2023/05/23 14:05:06;;;;;;;23.95;4.70;;;;;;;;;;4970485;28;25075;-77
2023/05/23 14:07:32;;;;;;;18.23;3.47;;;;;;;;;;4965335;28;25082;-76
2023/05/23 14:09:58;;;;;;;14.60;3.20;;;;;;;;;;4963366;28;25116;-77
2023/05/23 14:12:25;;;;;;;15.45;2.50;;;;;;;;;;4963422;28;25072;-76
2023/05/23 14:14:51;;;;;;;8.48;1.92;;;;;;;;;;4962356;28;25072;-74
2023/05/23 14:17:17;;;;;;;11.60;2.75;;;;;;;;;;4961278;28;25117;-77
2023/05/23 14:19:43;;;;;;;13.40;2.80;;;;;;;;;;4966380;28;25078;-75
2023/05/23 14:22:10;;;;;;;13.27;2.75;;;;;;;;;;4961737;28;25073;-77
2023/05/23 14:24:36;;;;;;;14.60;4.70;;;;;;;;;;4968922;28;25065;-76
2023/05/23 14:27:04;;;;;;;15.55;4.65;;;;;;;;;;4980402;28;25077;-77
2023/05/23 14:29:30;;;;;;;15.10;3.00;;;;;;;;;;4990031;28;25066;-77
2023/05/23 14:31:58;;;;;;;21.08;2.95;;;;;;;;;;4965903;28;25074;-76
2023/05/23 14:34:24;;;;;;;14.40;3.00;;;;;;;;;;4965096;28;25087;-77
2023/05/23 14:36:50;;;;;;;9.63;2.80;;;;;;;;;;4966884;28;25251;-75
2023/05/23 14:39:16;;;;;;;14.73;3.08;;;;;;;;;;4971933;28;25061;-78
2023/05/23 14:41:42;;;;;;;13.18;2.50;;;;;;;;;;4967669;28;25087;-77